Date,TemperatureHighF,TemperatureAvgF,TemperatureLowF,DewpointHighF,DewpointAvgF,DewpointLowF,HumidityHigh,HumidityAvg,HumidityLow,PressureMaxIn,PressureMinIn,WindSpeedMaxMPH,WindSpeedAvgMPH,GustSpeedMaxMPH,PrecipitationSumIn
2013-1-1,44.4,32.0,19.3,27.1,21.3,15.2,93,67,32,30.36,30.22,6,2,10,0.01
2013-1-2,50.6,36.8,28.0,25.7,22.4,19.3,84,58,33,30.24,30.08,7,2,10,0.00
2013-1-3,47.3,36.3,27.3,32.4,25.6,18.6,87,66,46,30.28,30.09,9,4,14,0.00
2013-1-4,46.4,34.8,26.4,28.2,26.2,23.3,90,73,46,30.38,30.27,6,2,10,0.00
2013-1-5,55.6,36.0,22.3,31.2,21.1,13.5,92,62,20,30.44,30.32,4,2,7,0.00
2013-1-6,56.2,41.7,28.6,24.1,20.2,16.2,70,45,22,30.35,30.00,8,2,10,0.00
2013-1-7,53.3,40.0,28.7,27.0,22.5,15.2,75,52,24,30.00,29.82,14,4,17,0.00
2013-1-8,57.9,42.8,28.8,29.7,24.3,17.3,83,52,22,30.14,29.92,10,3,14,0.00
2013-1-9,59.9,42.2,26.1,25.3,17.9,9.7,76,43,14,30.31,30.13,6,2,10,0.00
2013-1-10,62.4,47.0,28.2,22.1,19.2,16.6,68,36,18,30.14,29.83,17,7,26,0.00
2013-1-11,48.2,35.0,20.3,33.1,16.8,1.6,84,49,19,30.03,29.84,19,9,28,0.00
2013-1-12,36.9,24.3,14.6,11.2,8.0,3.8,75,52,26,30.25,30.01,11,4,18,0.00
2013-1-13,42.9,26.4,11.8,11.6,5.5,-4.2,78,45,15,30.26,30.10,11,4,15,0.00
2013-1-14,37.2,25.7,15.9,7.8,3.6,-1.3,64,40,24,30.30,30.15,13,6,16,0.00
2013-1-15,37.0,23.4,9.6,5.8,-0.4,-8.1,70,39,14,30.53,30.30,9,3,14,0.00
2013-1-16,52.8,35.8,18.1,8.9,2.9,-3.4,45,26,14,30.53,30.36,10,3,16,0.00
2013-1-17,59.2,44.3,29.6,14.1,10.8,5.7,38,26,16,30.39,30.25,7,4,11,0.00
2013-1-18,62.4,45.0,25.8,18.7,13.9,9.0,61,31,13,30.31,30.16,6,2,9,0.00
2013-1-19,68.5,49.7,30.9,28.4,19.6,15.0,56,33,16,30.31,30.16,5,3,9,0.00
2013-1-20,61.8,44.6,33.1,31.1,27.7,21.8,65,53,31,30.18,30.03,5,2,8,0.01
2013-1-21,70.0,52.3,35.9,34.1,29.6,26.8,72,45,25,30.13,30.02,6,2,10,0.00
2013-1-22,70.3,51.5,36.4,35.0,28.2,25.1,75,45,20,30.20,30.09,6,3,10,0.00
2013-1-23,70.8,52.7,36.4,31.6,28.2,25.5,66,42,22,30.27,30.14,6,2,10,0.00
2013-1-24,65.3,55.9,49.1,41.5,37.2,31.0,71,51,34,30.21,30.11,7,2,10,0.00
2013-1-25,67.4,56.2,41.2,48.4,41.6,37.3,86,60,40,30.17,29.97,9,2,14,0.00
2013-1-26,62.9,52.8,47.5,52.7,48.2,44.8,96,85,59,29.98,29.85,16,5,22,0.45
2013-1-27,58.8,50.5,45.9,47.4,43.9,41.1,93,79,55,30.00,29.92,11,5,16,0.01
2013-1-28,51.9,43.9,32.0,43.5,37.7,29.7,92,79,55,29.97,29.86,18,10,26,0.25
2013-1-29,41.6,34.4,29.3,29.7,22.8,18.2,93,64,39,30.28,29.97,18,10,28,0.01
2013-1-30,49.4,36.2,25.5,24.2,18.7,9.4,81,54,22,30.43,30.27,7,3,11,0.00
2013-1-31,55.2,40.8,25.7,24.4,21.8,17.7,80,50,26,30.34,30.21,6,2,12,0.00
2013-2-1,69.3,45.5,28.1,28.2,22.6,14.2,77,47,13,30.29,30.18,6,2,8,0.00
2013-2-2,68.7,50.2,32.6,28.2,20.3,6.7,67,37,9,30.30,30.17,6,3,10,0.00
2013-2-3,62.2,51.7,43.4,37.3,29.4,17.5,62,44,20,30.18,29.95,13,2,20,0.00
2013-2-4,63.5,49.7,36.4,36.5,33.5,30.3,80,56,32,30.05,29.93,8,3,11,0.00
2013-2-5,66.4,50.1,34.7,39.8,33.9,27.2,87,58,24,30.05,29.92,8,3,12,0.00
2013-2-6,63.4,50.0,37.3,35.9,32.4,26.5,80,54,25,30.04,29.89,11,4,16,0.00
2013-2-7,63.4,46.7,33.1,37.0,29.9,23.2,87,57,23,30.12,30.00,5,3,14,0.00
2013-2-8,62.7,50.2,35.5,27.5,18.8,-3.5,71,33,7,30.01,29.75,17,7,23,0.00
2013-2-9,46.1,37.6,27.4,31.5,24.4,16.4,92,61,34,30.08,29.73,16,8,23,0.03
2013-2-10,51.9,35.9,21.6,24.8,14.5,-2.3,84,50,11,30.13,30.00,14,4,20,0.00
2013-2-11,44.6,34.6,22.6,31.2,20.4,10.2,93,60,34,30.19,30.00,14,6,20,0.01
2013-2-12,43.7,31.7,20.3,31.3,23.6,9.3,96,76,29,30.35,30.19,7,2,11,0.03
2013-2-13,56.6,37.1,20.0,26.7,18.8,11.2,90,55,17,30.30,30.17,6,2,9,0.01
2013-2-14,60.9,41.9,23.7,24.9,20.3,13.9,80,48,17,30.20,30.08,11,4,14,0.00
2013-2-15,46.4,37.5,31.9,25.1,23.3,20.6,74,58,39,30.25,30.17,10,2,14,0.00
2013-2-16,64.1,49.1,35.6,15.8,11.5,3.8,43,24,9,30.31,30.06,11,4,16,0.00
2013-2-17,66.5,50.5,31.2,18.6,10.2,2.1,50,24,8,30.07,29.86,16,8,22,0.00
2013-2-18,63.7,48.9,31.7,19.2,11.3,0.2,49,24,8,30.04,29.93,10,4,14,0.00
2013-2-19,61.2,51.1,40.6,33.6,20.2,10.7,48,30,19,29.96,29.67,22,9,31,0.00
2013-2-20,44.9,35.8,28.2,36.6,27.6,16.6,95,75,32,29.97,29.61,19,9,25,0.00
2013-2-21,44.4,33.7,20.1,32.5,27.1,18.1,94,78,49,30.16,29.97,8,2,11,0.07
2013-2-22,50.5,38.3,27.2,32.8,29.0,24.7,92,71,46,30.20,30.06,12,5,16,0.00
2013-2-23,62.7,43.3,23.4,29.3,23.0,17.4,91,52,18,30.20,29.88,11,4,15,0.00
2013-2-24,47.3,39.1,24.1,24.2,12.8,-5.1,59,36,13,30.11,29.78,23,11,32,0.00
2013-2-25,53.5,36.4,20.3,16.3,13.2,9.6,70,42,18,30.29,30.11,8,4,11,0.00
2013-2-26,60.7,40.7,22.9,17.4,11.8,1.1,69,37,10,30.14,30.00,15,6,20,0.00
2013-2-27,56.9,40.2,20.8,17.3,9.6,1.4,76,34,11,30.26,30.14,10,4,13,0.00
2013-2-28,59.4,41.4,22.2,15.5,6.2,-10.2,64,30,6,30.39,30.23,11,5,14,0.00
2013-3-1,67.0,45.8,25.4,19.3,13.0,6.1,61,32,12,30.39,30.27,7,3,10,0.00
2013-3-2,78.0,54.1,31.5,26.6,17.4,-4.1,66,31,5,30.37,30.15,8,3,10,0.00
2013-3-3,75.5,57.8,38.3,23.0,11.6,-12.6,49,22,3,30.15,29.89,13,6,18,0.00
2013-3-4,67.5,58.3,39.0,32.7,19.6,3.4,57,24,11,30.02,29.78,17,9,25,0.00
2013-3-5,70.7,54.4,34.1,28.4,24.9,19.6,73,37,15,30.13,30.00,12,4,16,0.00
2013-3-6,75.6,61.0,48.3,30.6,23.0,9.2,45,25,9,30.02,29.83,15,5,20,0.00
2013-3-7,70.0,57.4,44.5,28.1,23.1,14.6,52,29,12,29.91,29.83,12,6,18,0.00
2013-3-8,57.0,49.0,35.7,44.8,35.7,23.7,91,62,34,29.91,29.71,22,11,30,0.17
2013-3-9,46.1,39.8,34.2,35.0,31.4,26.8,90,72,51,30.12,29.90,14,8,21,0.09
2013-3-10,56.3,44.9,34.3,35.2,29.6,21.9,89,59,27,30.18,30.09,10,4,14,0.00
2013-3-11,69.4,49.3,29.8,32.6,23.8,15.3,83,43,14,30.22,30.03,9,3,13,0.00
2013-3-12,73.9,53.2,31.8,30.3,22.1,11.3,73,36,10,30.12,30.01,7,3,10,0.00
2013-3-13,79.2,60.6,38.8,26.5,18.4,9.3,57,25,7,30.16,30.01,7,2,10,0.00
2013-3-14,82.5,61.9,41.0,27.0,14.8,-7.0,49,22,4,30.12,29.97,8,3,11,0.00
2013-3-15,84.2,64.2,43.2,22.2,11.5,-14.3,38,18,2,30.03,29.86,13,6,17,0.00
2013-3-16,79.4,65.9,50.1,22.4,11.6,-4.3,27,14,4,29.89,29.68,17,8,27,0.00
2013-3-17,74.3,62.3,50.5,23.7,15.7,6.3,32,17,11,29.88,29.72,16,8,27,0.00
2013-3-18,74.5,61.6,46.1,33.8,22.2,13.4,47,25,10,29.93,29.84,10,6,16,0.00
2013-3-19,71.5,59.9,47.9,31.5,26.0,16.8,50,29,14,30.01,29.86,14,6,19,0.00
2013-3-20,76.9,59.5,42.4,30.2,26.6,17.6,57,32,11,30.04,29.85,13,5,17,0.00
2013-3-21,73.7,61.5,50.0,29.9,23.2,11.5,41,25,10,29.84,29.67,14,6,20,0.00
2013-3-22,71.3,61.9,51.8,31.6,25.3,13.5,39,26,13,29.75,29.60,17,9,26,0.00
2013-3-23,66.8,55.8,44.6,29.0,18.2,6.2,46,25,10,29.95,29.75,17,7,24,0.00
2013-3-24,68.5,54.0,37.5,10.0,4.7,-1.6,27,15,7,29.99,29.84,14,6,17,0.00
2013-3-25,71.1,55.1,35.7,16.0,10.6,3.3,34,18,9,30.01,29.90,7,4,12,0.00
2013-3-26,77.4,60.0,39.9,18.8,13.2,4.9,40,19,7,29.99,29.83,11,4,18,0.00
2013-3-27,76.3,62.4,46.9,27.5,19.5,9.3,34,20,9,29.95,29.84,12,6,18,0.00
2013-3-28,60.2,51.7,43.8,25.7,23.4,20.8,48,34,23,29.95,29.92,7,3,8,0.00
2013-3-29,77.8,63.5,46.0,28.8,22.0,15.2,44,22,10,30.04,29.92,8,4,0,0.00
2013-3-30,75.4,61.9,50.3,25.8,18.6,11.9,37,20,10,30.00,29.87,11,4,15,0.00
2013-3-31,77.8,61.1,43.0,28.9,24.1,18.0,51,27,12,29.99,29.85,11,4,17,0.00
2013-4-1,76.8,63.4,46.5,34.8,25.3,12.2,57,27,9,29.93,29.80,13,6,22,0.00
2013-4-2,70.7,57.6,41.0,23.7,18.3,10.3,43,23,10,29.93,29.79,15,6,20,0.00
2013-4-3,73.5,58.4,40.6,27.0,20.2,7.8,46,25,8,30.02,29.93,11,5,15,0.00
2013-4-4,80.3,62.9,41.8,29.0,18.3,5.0,49,22,6,30.06,29.90,7,4,11,0.00
2013-4-5,80.4,66.9,49.1,29.9,19.8,12.8,33,18,9,29.93,29.75,16,7,22,0.00
2013-4-6,77.8,64.9,49.9,33.7,28.1,21.8,48,27,14,29.88,29.75,13,7,21,0.00
2013-4-7,78.1,64.5,47.1,33.7,27.1,14.8,54,28,10,29.82,29.68,12,6,20,0.00
2013-4-8,73.4,62.2,45.0,37.6,32.1,25.0,75,34,18,29.69,29.35,26,13,33,0.08
2013-4-9,56.9,48.1,40.7,37.6,28.4,16.8,80,50,22,29.91,29.47,23,10,32,0.03
2013-4-10,60.9,48.9,33.3,30.3,24.4,19.8,71,41,23,30.01,29.89,13,6,19,0.00
2013-4-11,73.7,54.7,34.1,27.3,21.5,10.8,67,33,9,30.01,29.77,13,5,24,0.00
2013-4-12,73.8,58.3,42.4,24.5,20.9,17.8,41,25,12,29.81,29.68,14,4,18,0.00
2013-4-13,76.7,63.2,44.5,26.9,21.5,16.6,43,22,11,29.81,29.67,12,6,16,0.00
2013-4-14,75.1,63.4,50.0,35.6,28.8,20.6,47,29,14,29.73,29.61,16,10,22,0.00
2013-4-15,76.8,64.3,52.6,38.6,30.6,21.5,49,31,13,29.73,29.65,17,12,25,0.00
2013-4-16,76.3,64.2,52.3,44.6,27.7,12.1,60,29,10,29.75,29.64,20,13,26,0.00
2013-4-17,61.2,54.3,41.6,44.7,24.7,8.2,63,34,18,29.97,29.64,20,12,29,0.00
2013-4-18,64.3,49.3,32.2,12.5,7.2,-0.3,36,20,8,30.16,29.96,10,4,15,0.00
2013-4-19,74.4,56.6,37.9,5.4,-3.0,-20.1,23,10,2,30.18,29.94,9,4,15,0.00
2013-4-20,76.2,61.9,40.2,8.7,-1.5,-10.4,18,9,3,29.95,29.85,11,5,14,0.00
2013-4-21,82.5,72.4,54.1,13.3,7.6,-2.1,19,9,4,30.00,29.86,10,5,13,0.00
2013-4-22,84.2,68.7,47.2,19.9,10.2,-1.4,29,12,4,29.92,29.73,12,6,18,0.00
2013-4-23,80.8,68.9,58.4,23.2,16.2,9.5,21,14,7,29.81,29.68,15,7,21,0.00
2013-4-24,82.2,68.9,47.9,26.3,17.5,4.3,34,16,6,29.86,29.75,12,5,17,0.00
2013-4-25,77.5,66.1,51.2,27.3,19.3,7.2,31,18,7,29.94,29.75,18,9,26,0.00
2013-4-26,79.8,62.4,38.9,27.9,13.6,-11.8,50,21,3,30.06,29.94,10,4,19,0.00
2013-4-27,82.3,67.6,45.9,25.4,16.5,5.9,37,17,6,30.03,29.83,10,4,15,0.00
2013-4-28,84.5,70.7,51.1,22.6,10.5,-5.7,28,12,3,29.85,29.67,8,4,14,0.00
2013-4-29,86.8,72.2,52.7,18.5,6.6,-5.1,19,9,3,29.75,29.59,10,4,19,0.00
2013-4-30,85.7,73.2,54.4,24.6,15.6,6.3,24,12,5,29.70,29.61,12,6,21,0.00
2013-5-1,83.0,69.6,56.4,23.0,16.6,6.9,24,14,6,29.91,29.69,11,6,16,0.00
2013-5-2,80.8,67.3,52.4,23.6,17.3,5.7,29,16,8,30.03,29.90,13,6,26,0.00
2013-5-3,79.3,62.5,45.5,20.5,15.1,7.1,35,18,7,30.03,29.79,12,5,16,0.00
2013-5-4,81.4,67.4,48.7,30.8,20.6,13.6,27,18,9,29.80,29.65,12,5,19,0.00
2013-5-5,80.3,69.3,59.2,35.8,26.0,12.4,37,21,8,29.82,29.70,16,9,23,0.00
2013-5-6,75.5,63.3,49.6,44.6,36.0,29.9,72,39,20,29.91,29.78,15,6,18,0.00
2013-5-7,75.1,63.4,52.1,39.9,32.5,22.4,55,34,17,29.91,29.80,14,8,20,0.00
2013-5-8,75.6,62.7,48.2,37.1,29.6,16.9,61,32,12,29.93,29.84,14,7,20,0.00
2013-5-9,75.8,63.7,48.0,38.8,29.8,15.7,62,32,11,29.92,29.80,10,5,14,0.00
2013-5-10,76.1,63.0,49.2,37.1,30.5,24.4,51,31,16,30.01,29.85,14,4,17,0.00
2013-5-11,76.1,63.9,46.3,36.8,33.7,30.5,60,34,21,30.06,29.97,12,5,17,0.00
2013-5-12,79.7,67.5,55.8,37.2,30.1,21.8,47,27,12,30.07,29.89,17,7,24,0.00
2013-5-13,82.6,68.8,52.0,33.3,22.1,8.0,36,19,6,30.02,29.86,16,4,22,0.00
2013-5-14,86.1,72.7,54.3,35.5,30.2,17.8,43,23,10,29.92,29.76,11,4,27,0.00
2013-5-15,86.9,76.9,65.0,33.6,30.8,27.4,28,19,13,29.88,29.73,12,9,19,0.00
2013-5-16,87.9,75.6,62.9,31.4,22.8,10.4,25,15,6,29.81,29.66,14,6,17,0.00
2013-5-17,84.6,72.6,54.4,32.3,22.4,-7.1,35,18,4,29.79,29.70,14,6,18,0.00
2013-5-18,82.0,71.0,60.6,32.6,24.3,8.2,34,19,7,29.82,29.72,14,7,20,0.00
2013-5-19,84.8,69.5,51.4,34.6,25.6,7.6,46,23,6,29.83,29.69,11,5,14,0.00
2013-5-20,84.3,70.6,52.4,36.6,26.9,18.1,45,22,11,29.80,29.68,15,7,23,0.00
2013-5-21,86.6,70.5,49.0,23.1,11.8,-4.8,30,13,3,29.84,29.69,10,4,14,0.00
2013-5-22,89.2,74.5,53.4,25.1,16.8,2.8,26,12,4,29.74,29.60,10,5,15,0.00
2013-5-23,89.2,76.1,57.3,33.8,19.1,-6.8,33,14,3,29.73,29.64,12,7,21,0.00
2013-5-24,89.3,75.0,57.2,41.2,19.7,-10.4,51,19,2,29.81,29.72,11,5,21,0.00
2013-5-25,87.6,73.2,52.8,32.1,20.7,2.7,42,17,4,29.84,29.76,12,5,19,0.00
2013-5-26,87.7,73.1,50.9,25.7,12.8,-4.0,31,13,3,29.85,29.76,13,6,17,0.00
2013-5-27,88.6,73.4,51.8,24.3,9.0,-12.5,25,11,2,29.81,29.63,11,5,16,0.00
2013-5-28,86.6,71.9,50.8,28.8,15.8,0.1,29,14,4,29.69,29.52,15,7,23,0.00
2013-5-29,85.1,72.5,58.5,33.3,28.0,23.5,36,21,11,29.67,29.56,12,6,17,0.00
2013-5-30,88.5,76.0,64.2,51.5,37.3,26.9,63,29,12,29.72,29.64,12,6,22,0.00
2013-5-31,91.0,77.1,58.7,54.8,41.7,25.0,76,34,10,29.75,29.63,13,6,20,0.00
2013-6-1,96.0,80.2,58.9,37.9,30.5,20.6,39,19,7,29.73,29.58,8,3,11,0.00
2013-6-2,96.5,82.7,64.5,38.7,31.7,23.6,34,18,8,29.67,29.54,12,5,18,0.00
2013-6-3,92.6,80.8,63.0,38.2,26.0,10.4,28,15,5,29.69,29.60,12,6,18,0.00
2013-6-4,92.3,79.7,61.1,40.7,33.0,21.2,42,21,8,29.74,29.65,12,5,17,0.00
2013-6-5,92.9,77.8,59.8,38.0,18.7,-8.8,35,15,2,29.76,29.63,11,4,16,0.00
2013-6-6,94.6,79.7,59.1,25.6,19.4,7.6,23,12,4,29.72,29.59,9,4,12,0.00
2013-6-7,97.4,83.5,62.2,29.0,22.2,12.9,24,12,5,29.67,29.51,11,4,15,0.00
2013-6-8,95.8,83.5,67.7,33.0,22.0,12.6,21,12,5,29.69,29.59,14,8,21,0.00
2013-6-9,95.5,82.8,67.3,39.0,25.6,10.5,34,15,5,29.74,29.64,12,6,18,0.00
2013-6-10,98.2,84.6,65.9,30.8,24.0,13.7,22,12,6,29.76,29.62,13,5,18,0.00
2013-6-11,98.9,86.2,68.5,30.4,22.6,10.7,21,11,4,29.73,29.61,14,6,19,0.00
2013-6-12,99.2,85.9,67.9,31.2,26.8,23.3,21,12,7,29.76,29.62,15,7,22,0.00
2013-6-13,94.5,83.6,70.1,48.0,40.2,30.5,43,23,12,29.74,29.61,14,8,22,0.00
2013-6-14,93.1,78.6,69.3,60.0,51.8,44.7,71,41,20,29.71,29.61,15,6,20,0.32
2013-6-15,90.3,75.5,67.9,64.0,56.2,50.3,86,54,26,29.80,29.69,18,3,24,0.65
2013-6-16,93.8,78.8,64.0,59.8,49.3,31.1,78,41,12,29.85,29.72,10,3,13,0.00
2013-6-17,94.3,81.0,65.3,43.2,29.9,15.2,43,18,7,29.80,29.68,12,5,16,0.00
2013-6-18,95.4,82.3,61.3,35.3,14.0,-22.9,37,11,1,29.75,29.63,10,5,16,0.00
2013-6-19,96.0,81.3,62.1,39.8,24.9,9.1,34,15,5,29.67,29.57,16,6,23,0.00
2013-6-20,95.2,80.1,57.9,36.0,19.7,-24.7,37,15,1,29.70,29.62,14,6,18,0.00
2013-6-21,95.0,82.0,60.7,44.7,27.8,1.3,47,18,3,29.73,29.64,14,7,20,0.00
2013-6-22,94.0,82.0,68.3,37.3,25.4,5.5,29,15,4,29.73,29.61,14,8,18,0.00
2013-6-23,93.0,80.0,61.7,37.2,30.5,24.6,34,18,9,29.70,29.57,17,7,23,0.00
2013-6-24,92.0,80.3,68.6,38.3,33.7,26.6,32,20,11,29.74,29.63,17,7,25,0.00
2013-6-25,92.9,81.1,64.6,42.2,27.3,15.9,38,17,6,29.80,29.71,10,6,11,0.00
2013-6-26,94.0,82.7,68.7,34.7,25.2,17.2,24,13,7,29.87,29.75,10,6,16,0.00
2013-6-27,96.7,84.3,67.7,45.9,31.8,19.6,41,16,9,29.88,29.75,13,8,18,0.00
2013-6-28,100.8,87.7,75.3,36.1,30.1,24.3,23,13,7,29.79,29.64,16,4,21,0.00
2013-6-29,99.5,84.9,69.9,44.0,35.7,29.8,29,19,9,29.76,29.60,8,2,16,0.00
2013-6-30,99.3,84.2,66.0,62.1,45.9,36.4,79,32,12,29.75,29.52,17,6,25,0.09
2013-7-1,95.5,81.5,67.0,59.7,53.2,38.1,75,42,16,29.79,29.67,9,3,18,0.00
2013-7-2,91.9,77.8,64.7,58.6,54.2,49.4,80,48,24,29.89,29.70,19,6,28,0.04
2013-7-3,94.3,80.5,64.3,56.4,51.4,45.0,69,40,22,29.85,29.58,15,4,21,0.00
2013-7-4,94.5,82.4,65.0,60.1,52.8,45.9,81,40,20,29.70,29.55,12,6,18,0.00
2013-7-5,92.6,74.8,65.7,64.6,59.4,49.1,91,62,29,29.75,29.62,13,4,22,2.09
2013-7-6,91.6,78.6,65.0,64.0,59.5,53.2,87,56,30,29.74,29.59,10,2,16,0.00
2013-7-7,94.3,79.1,67.6,64.7,58.9,47.7,80,53,23,29.74,29.59,13,4,21,0.03
2013-7-8,95.1,79.9,70.2,65.5,59.0,50.5,81,52,23,29.81,29.70,16,3,21,0.00
2013-7-9,90.4,78.2,63.5,66.4,62.1,55.2,94,61,34,29.88,29.69,14,6,20,0.57
2013-7-10,86.1,74.2,65.4,67.1,64.4,60.3,95,74,46,29.87,29.73,11,4,15,0.03
2013-7-11,84.7,73.0,64.6,69.6,64.5,60.7,96,76,48,29.86,29.73,9,3,12,0.14
2013-7-12,86.1,75.8,65.6,67.3,62.2,56.3,94,66,38,29.85,29.70,12,4,15,0.03
2013-7-13,88.3,75.7,67.2,67.3,61.1,54.9,87,63,33,29.82,29.68,15,4,19,0.29
2013-7-14,89.9,77.4,66.3,64.4,61.3,57.4,86,60,34,29.83,29.69,11,4,17,0.00
2013-7-15,89.6,79.0,67.7,63.4,60.0,56.4,85,54,35,29.76,29.60,11,5,18,0.00
2013-7-16,77.9,67.8,64.6,65.5,63.3,61.6,97,86,58,29.94,29.75,9,2,13,2.00
2013-7-17,84.5,73.3,63.9,64.5,59.4,53.2,97,66,35,29.98,29.83,12,3,16,0.01
2013-7-18,81.3,73.1,63.6,60.8,58.3,55.5,83,61,43,29.91,29.75,9,4,16,0.00
2013-7-19,75.4,69.9,66.2,65.6,62.2,59.1,90,77,63,29.83,29.73,9,2,12,0.03
2013-7-20,79.3,71.8,66.0,66.4,63.8,59.8,92,77,55,29.80,29.67,12,3,16,0.04
2013-7-21,82.8,73.5,65.2,64.7,62.1,58.0,92,69,45,29.83,29.72,11,4,14,0.00
2013-7-22,85.0,74.4,65.6,63.2,60.5,56.8,80,63,40,29.86,29.75,11,5,16,0.00
2013-7-23,86.2,75.5,67.7,64.4,61.3,55.9,85,63,38,29.86,29.73,14,5,21,0.00
2013-7-24,82.1,72.3,67.4,67.4,64.2,61.3,91,76,52,29.84,29.74,10,3,13,0.24
2013-7-25,75.4,68.1,66.4,67.7,64.8,63.9,93,89,77,29.92,29.80,5,1,7,0.52
2013-7-26,84.2,72.9,67.3,68.0,66.0,63.0,96,81,49,29.96,29.90,7,2,8,0.04
2013-7-27,84.2,72.2,64.5,67.2,64.2,59.8,95,77,50,29.93,29.77,15,2,21,0.00
2013-7-28,88.2,77.7,66.6,64.3,57.2,49.4,86,53,28,29.80,29.69,10,4,17,0.00
2013-7-29,89.8,78.5,68.4,55.3,52.1,48.4,57,41,25,29.88,29.76,8,4,12,0.00
2013-7-30,88.3,78.7,67.7,58.2,54.3,49.1,64,44,29,29.96,29.84,8,3,11,0.00
2013-7-31,88.1,77.8,69.3,62.0,57.0,51.0,71,50,30,29.92,29.81,10,2,13,0.00
2013-8-1,82.3,71.8,66.9,65.2,60.7,55.9,87,69,50,29.93,29.81,12,2,17,0.04
2013-8-2,84.3,73.2,64.5,64.5,60.6,55.5,87,66,47,29.88,29.80,12,4,17,0.06
2013-8-3,90.3,77.0,63.4,61.3,56.2,50.5,75,51,26,29.90,29.78,12,2,18,0.00
2013-8-4,85.3,77.3,71.3,62.0,58.7,54.8,71,54,38,29.86,29.76,8,3,12,0.00
2013-8-5,81.1,70.5,61.4,63.4,60.0,56.0,93,71,46,29.94,29.78,12,4,19,0.82
2013-8-6,76.8,68.5,61.0,65.0,61.3,55.9,95,79,50,29.90,29.85,11,2,14,0.40
2013-8-7,82.4,71.2,60.1,60.8,57.4,52.3,93,65,37,29.95,29.84,9,4,6,0.00
2013-8-8,88.0,74.1,58.8,56.7,51.5,38.3,82,50,19,29.88,29.75,7,3,12,0.00
2013-8-9,90.7,76.0,59.2,53.5,49.1,40.9,69,42,23,29.83,29.75,8,3,13,0.00
2013-8-10,89.0,76.7,61.8,59.4,49.9,40.3,61,41,24,29.89,29.77,11,2,15,0.00
2013-8-11,87.9,73.7,65.1,65.2,60.8,57.3,89,66,38,29.86,29.73,13,3,16,0.03
2013-8-12,92.4,76.3,62.1,63.1,59.3,42.0,93,60,26,29.84,29.74,9,2,13,0.00
2013-8-13,92.8,79.1,63.6,60.1,49.0,36.0,58,36,19,29.86,29.71,8,2,12,0.00
2013-8-14,89.8,77.4,70.3,65.2,58.8,48.0,77,55,29,29.87,29.70,13,4,20,0.00
2013-8-15,92.2,78.5,67.0,59.9,56.3,51.7,72,49,27,29.86,29.75,13,2,15,0.00
2013-8-16,93.1,79.3,64.2,62.5,57.0,46.1,80,50,21,29.85,29.75,11,3,16,0.00
2013-8-17,95.0,81.8,64.7,61.2,53.0,43.8,78,42,19,29.84,29.68,9,3,17,0.00
2013-8-18,92.2,77.0,64.5,62.2,54.8,47.8,70,48,27,29.84,29.72,12,3,16,0.15
2013-8-19,92.2,78.9,65.5,61.5,54.2,47.3,81,45,23,29.85,29.71,8,2,11,0.00
2013-8-20,93.7,76.1,67.2,61.3,56.9,51.5,77,54,25,29.86,29.68,13,5,19,0.07
2013-8-21,88.2,74.3,64.1,64.2,59.0,51.8,89,63,31,29.85,29.75,13,2,19,0.42
2013-8-22,89.0,75.0,62.1,64.6,58.1,52.8,90,58,31,29.86,29.71,13,4,19,0.02
2013-8-23,89.2,74.6,60.3,62.6,55.6,46.6,93,57,25,29.83,29.64,11,3,16,0.16
2013-8-24,75.7,68.8,61.4,63.4,61.2,58.6,96,78,59,29.87,29.76,7,2,11,0.19
2013-8-25,83.5,71.4,65.4,67.2,63.5,60.5,95,78,48,29.91,29.77,9,2,16,0.04
2013-8-26,88.9,75.6,66.5,68.7,62.7,53.1,96,68,31,29.87,29.71,10,3,18,0.14
2013-8-27,89.3,76.4,60.8,62.1,57.1,49.2,93,56,26,29.80,29.66,9,2,15,0.00
2013-8-28,84.2,73.2,62.1,64.0,60.3,57.5,88,66,43,29.87,29.71,10,3,16,0.00
2013-8-29,73.6,69.0,66.4,67.2,64.6,61.7,96,86,70,29.98,29.86,7,1,11,0.20
2013-8-30,83.2,72.2,64.6,65.7,62.9,56.8,97,75,43,29.99,29.86,7,1,11,0.00
2013-8-31,88.8,74.7,60.5,64.6,59.6,54.1,93,63,34,29.91,29.74,9,4,13,0.00
2013-9-1,90.4,77.8,62.5,63.3,58.3,53.8,88,54,31,29.81,29.68,9,4,13,0.00
2013-9-2,90.5,76.4,62.6,64.3,58.6,54.7,90,57,32,29.85,29.67,10,3,17,0.23
2013-9-3,89.4,75.1,62.9,64.9,58.7,50.5,91,60,30,29.85,29.72,10,3,17,0.03
2013-9-4,89.7,75.8,59.4,60.5,53.9,46.2,88,52,24,29.88,29.77,12,3,21,0.00
2013-9-5,91.7,77.1,61.3,57.5,52.1,46.5,75,45,23,29.87,29.76,13,3,18,0.00
2013-9-6,91.0,73.6,62.6,61.6,54.9,50.1,72,55,27,29.86,29.73,8,3,13,0.07
2013-9-7,72.6,66.6,64.2,64.1,61.6,57.2,94,84,65,29.89,29.80,11,1,14,0.31
2013-9-8,77.2,66.7,62.9,66.8,62.7,61.1,96,88,60,29.85,29.69,8,1,16,0.69
2013-9-9,72.5,64.9,62.1,66.7,62.8,60.4,97,93,75,29.76,29.68,7,2,12,0.85
2013-9-10,79.5,67.1,60.2,62.6,59.1,51.6,97,78,39,29.83,29.74,9,3,15,0.00
2013-9-11,81.2,69.8,56.9,59.9,55.3,47.3,94,63,33,29.90,29.79,8,2,13,0.00
2013-9-12,85.0,70.4,57.7,64.8,58.6,54.3,93,69,40,29.82,29.66,8,2,11,0.06
2013-9-13,86.1,73.0,62.4,65.7,59.8,50.6,94,68,31,29.74,29.57,7,2,12,0.00
2013-9-14,87.4,73.6,59.9,63.4,59.1,51.1,95,64,32,29.67,29.56,7,1,10,0.00
2013-9-15,87.2,74.6,62.9,63.5,58.2,52.6,90,60,32,29.74,29.62,11,3,28,0.90
2013-9-16,86.6,75.8,65.4,63.2,59.3,53.6,87,58,33,29.77,29.66,8,3,12,0.00
2013-9-17,88.8,75.7,67.1,64.7,57.9,49.0,73,57,26,29.74,29.58,5,2,9,0.00
2013-9-18,89.0,75.6,61.3,59.6,50.7,39.6,82,46,21,29.69,29.56,5,2,10,0.00
2013-9-19,89.9,75.6,61.2,54.0,48.1,42.1,67,40,21,29.69,29.58,7,2,10,0.00
2013-9-20,88.3,70.2,60.8,61.8,56.0,42.8,91,63,29,29.82,29.65,13,2,21,1.13
2013-9-21,83.8,71.3,58.3,63.1,56.8,49.4,91,63,31,29.82,29.64,8,2,12,0.01
2013-9-22,82.3,72.6,61.6,62.2,55.6,41.6,83,56,39,29.64,29.51,13,7,19,0.00
2013-9-23,83.6,66.5,47.9,48.6,43.1,37.9,86,47,22,29.86,29.65,5,2,8,0.00
2013-9-24,87.0,70.0,51.4,46.8,38.9,25.1,73,37,16,29.93,29.76,8,3,11,0.00
2013-9-25,84.2,71.1,56.4,38.7,33.3,25.6,44,26,18,29.78,29.60,11,5,16,0.00
2013-9-26,82.0,69.6,53.3,55.8,40.4,26.0,67,37,22,29.69,29.59,14,5,22,0.00
2013-9-27,73.1,64.1,50.6,55.2,46.9,31.8,81,55,33,29.88,29.61,12,6,18,0.00
2013-9-28,78.8,62.5,46.2,47.6,40.3,32.7,72,47,27,30.02,29.88,6,2,10,0.00
2013-9-29,82.7,67.0,50.1,46.4,40.9,36.5,72,42,20,30.03,29.88,8,3,13,0.00
2013-9-30,83.9,67.1,48.8,41.3,35.2,28.3,66,34,15,29.92,29.78,9,3,11,0.00
2013-10-1,83.3,67.0,50.3,40.3,35.8,30.7,52,34,17,29.90,29.79,7,3,12,0.00
2013-10-2,81.8,67.7,53.5,44.7,39.3,31.9,65,38,17,29.89,29.75,8,3,12,0.00
2013-10-3,82.4,67.7,53.0,48.3,41.5,31.8,79,43,17,29.81,29.66,11,4,17,0.00
2013-10-4,79.3,67.0,55.3,50.0,38.9,21.1,75,40,13,29.89,29.71,13,6,19,0.00
2013-10-5,74.4,59.7,42.1,34.0,24.6,13.9,59,28,15,30.06,29.89,9,2,14,0.00
2013-10-6,78.0,63.1,42.0,26.7,21.8,17.1,44,22,11,30.10,29.98,9,3,16,0.00
2013-10-7,82.7,66.8,46.1,37.6,28.6,21.0,45,25,16,30.02,29.84,6,2,10,0.00
2013-10-8,79.3,67.2,51.8,40.3,33.0,27.0,46,30,17,29.85,29.72,10,5,16,0.00
2013-10-9,77.7,66.6,54.6,47.7,37.3,28.6,54,36,17,29.74,29.65,19,8,27,0.00
2013-10-10,65.8,58.3,42.4,47.5,40.1,35.2,83,53,33,29.87,29.63,16,8,23,0.00
2013-10-11,73.2,54.1,37.4,42.3,37.0,21.0,91,58,15,29.97,29.87,8,2,12,0.00
2013-10-12,78.8,60.4,40.5,40.5,33.6,21.5,76,43,12,29.97,29.83,12,3,16,0.00
2013-10-13,80.3,66.5,51.4,48.4,41.3,33.7,66,42,19,29.90,29.80,16,6,22,0.00
2013-10-14,75.2,64.1,51.7,54.0,45.5,35.3,85,54,27,29.91,29.81,13,5,24,0.00
2013-10-15,76.1,60.6,45.0,46.4,35.4,26.0,70,42,21,29.90,29.77,10,5,16,0.00
2013-10-16,73.4,57.2,41.2,28.9,20.3,8.9,52,27,9,30.00,29.89,9,4,16,0.00
2013-10-17,75.3,56.0,36.6,22.7,16.9,6.1,47,25,7,30.04,29.88,8,4,11,0.00
2013-10-18,73.5,56.4,38.4,25.6,21.9,18.1,46,28,14,30.00,29.89,5,2,9,0.00
2013-10-19,78.1,58.1,37.6,25.4,18.7,11.3,52,26,8,30.06,29.91,7,3,12,0.00
2013-10-20,75.6,58.3,40.7,18.7,13.5,2.8,32,19,6,29.95,29.82,10,4,15,0.00
2013-10-21,76.9,59.2,41.3,19.2,15.1,7.9,35,20,7,29.99,29.89,9,4,24,0.00
2013-10-22,77.9,60.5,40.4,26.2,18.6,11.0,40,22,8,30.06,29.92,8,3,11,0.00
2013-10-23,80.3,62.6,44.4,33.7,28.5,24.8,49,29,16,29.95,29.82,6,2,12,0.00
2013-10-24,82.4,65.4,47.8,38.4,29.2,25.3,46,27,13,29.93,29.80,10,4,17,0.00
2013-10-25,79.0,62.7,44.6,30.0,26.4,17.4,48,27,10,30.01,29.90,8,4,12,0.00
2013-10-26,77.4,61.3,42.2,30.8,23.7,16.6,48,27,11,30.08,29.97,8,3,11,0.00
2013-10-27,68.1,54.2,45.7,35.4,31.1,28.0,56,42,28,29.99,29.93,4,1,6,0.00
2013-10-28,71.7,64.9,54.9,31.7,27.4,18.6,40,25,15,29.87,29.76,15,8,23,0.00
2013-10-29,72.3,61.8,54.1,41.7,31.6,22.9,58,34,16,29.88,29.75,17,7,23,0.00
2013-10-30,66.3,55.0,40.9,44.6,36.8,27.9,70,52,25,29.98,29.79,16,7,26,0.00
2013-10-31,69.1,50.2,31.8,30.7,21.1,7.6,79,39,10,30.11,29.97,9,3,14,0.00
2013-11-1,70.3,51.5,33.2,22.0,17.5,14.1,47,28,14,30.17,30.05,5,2,8,0.00
2013-11-2,75.5,60.8,40.7,37.6,18.7,12.4,44,21,9,30.11,29.86,11,3,14,0.00
2013-11-3,71.2,58.7,46.9,49.1,43.4,37.6,92,60,36,29.87,29.69,13,5,19,0.03
2013-11-4,69.7,57.2,44.2,45.1,40.7,37.3,78,56,34,29.80,29.67,10,5,8,0.00
2013-11-5,64.2,53.8,39.6,43.0,38.2,30.8,85,58,29,30.10,29.79,11,5,16,0.00
2013-11-6,66.4,50.0,30.6,35.8,25.9,16.7,92,46,19,30.27,30.10,10,3,14,0.00
2013-11-7,70.8,56.1,43.0,32.5,23.6,15.2,50,29,21,30.25,30.05,10,4,15,0.00
2013-11-8,73.5,56.7,39.4,38.0,32.2,27.5,66,42,24,30.09,29.93,6,2,11,0.00
2013-11-9,74.6,57.8,41.2,37.8,33.6,29.9,64,43,25,30.08,29.97,6,3,11,0.00
2013-11-10,77.2,58.6,40.6,38.5,33.3,30.4,67,42,21,30.11,29.98,8,3,11,0.00
2013-11-11,77.2,63.3,42.9,39.8,35.5,30.7,63,38,22,30.06,29.94,9,3,22,0.00
2013-11-12,73.6,62.3,50.3,46.7,40.8,32.9,63,46,34,30.16,30.03,13,5,19,0.00
2013-11-13,67.5,55.9,46.5,43.8,41.0,37.7,73,58,41,30.16,29.99,7,4,12,0.00
2013-11-14,74.0,55.6,40.2,43.8,35.6,24.5,86,53,16,30.02,29.86,11,3,16,0.00
2013-11-15,69.4,60.4,54.4,48.3,44.4,34.5,72,56,39,29.86,29.60,18,9,24,0.00
2013-11-16,67.1,57.6,51.1,46.6,41.5,34.2,74,57,30,29.83,29.62,15,9,22,0.00
2013-11-17,69.1,56.5,47.0,44.4,41.1,37.4,81,59,32,30.01,29.83,12,4,15,0.00
2013-11-18,71.5,56.3,42.6,49.6,40.4,30.3,90,59,22,30.06,29.93,9,3,12,0.00
2013-11-19,73.9,56.2,39.6,42.5,31.7,15.7,83,47,11,29.99,29.82,9,4,14,0.00
2013-11-20,70.6,58.2,42.5,36.0,30.4,16.9,61,37,14,29.86,29.73,15,6,20,0.00
2013-11-21,67.6,57.1,42.2,46.4,40.4,32.5,71,54,36,29.88,29.80,13,6,19,0.00
2013-11-22,61.6,55.5,48.7,52.8,46.6,41.3,94,73,55,29.86,29.76,14,6,21,0.26
2013-11-23,48.6,43.1,40.5,42.4,40.4,38.1,95,90,76,30.09,29.85,10,4,15,0.38
2013-11-24,50.8,41.6,33.7,39.8,36.5,31.1,93,83,59,30.17,30.07,9,3,12,0.00
2013-11-25,52.7,39.7,27.8,38.7,32.7,26.0,96,78,51,30.29,30.14,11,2,14,0.01
2013-11-26,55.2,44.6,35.7,32.8,28.1,22.1,83,54,34,30.35,30.21,11,5,18,0.00
2013-11-27,54.0,43.8,36.2,24.8,23.2,20.8,61,45,29,30.27,30.07,7,4,11,0.00
2013-11-28,64.1,46.5,31.8,34.2,28.6,22.5,74,52,31,30.17,30.05,6,2,10,0.00
2013-11-29,69.4,50.8,35.3,40.6,34.0,27.2,87,56,21,30.22,30.08,7,2,9,0.00
2013-11-30,66.9,52.7,41.3,41.4,36.8,31.8,82,58,27,30.17,30.05,5,2,7,0.00
2013-12-1,65.4,53.4,41.9,39.5,35.8,28.5,75,52,28,30.16,30.07,5,1,7,0.00
2013-12-2,69.7,51.4,35.2,34.6,24.9,5.8,78,44,10,30.11,29.91,8,4,12,0.00
2013-12-3,66.8,56.8,46.4,42.9,25.7,2.0,63,34,9,29.91,29.69,14,8,24,0.00
2013-12-4,62.5,53.8,45.9,43.3,36.4,21.4,73,55,21,29.80,29.66,19,13,26,0.00
2013-12-5,46.8,41.0,32.6,40.8,35.9,27.7,93,82,66,30.07,29.76,16,8,22,0.35
2013-12-6,47.1,33.7,23.2,30.0,25.9,20.3,91,75,43,30.23,30.06,7,2,10,0.01
2013-12-7,54.5,39.5,24.2,29.1,19.6,10.9,90,52,19,30.16,30.01,15,6,21,0.00
2013-12-8,51.5,42.4,34.7,33.4,29.7,22.2,78,61,43,30.11,29.99,14,7,19,0.00
2013-12-9,50.1,39.5,28.1,34.3,25.2,9.0,85,60,19,30.31,30.05,8,3,12,0.00
2013-12-10,54.1,41.0,25.3,23.5,16.1,10.3,72,38,24,30.32,30.17,7,2,9,0.00
2013-12-11,63.8,49.1,29.1,39.6,30.0,21.7,77,50,36,30.30,30.18,8,2,11,0.00
2013-12-12,63.8,50.8,38.1,44.8,35.4,25.4,76,56,41,30.23,30.01,8,3,12,0.00
2013-12-13,55.9,43.4,33.0,33.5,29.6,26.5,79,60,35,30.18,30.04,9,4,14,0.00
2013-12-14,54.8,42.7,27.3,32.0,24.7,18.2,87,53,24,30.34,30.17,10,3,16,0.00
2013-12-15,60.9,43.9,26.7,24.9,20.1,11.4,76,43,15,30.35,30.22,8,3,11,0.00
2013-12-16,69.2,50.1,31.3,25.0,19.7,13.9,63,33,12,30.30,30.18,6,1,9,0.00
2013-12-17,71.7,50.4,32.8,27.2,21.7,17.4,64,37,13,30.29,30.14,5,1,16,0.00
2013-12-18,65.1,53.2,40.2,27.4,23.1,18.3,55,33,17,30.15,29.84,9,1,11,0.00
2013-12-19,61.1,52.5,44.7,27.2,21.2,12.2,41,30,15,29.85,29.66,18,9,25,0.00
2013-12-20,49.1,40.4,35.2,38.6,31.6,20.0,93,73,37,29.84,29.56,12,6,16,0.26
2013-12-21,44.9,39.6,34.8,36.1,33.7,31.3,91,80,62,30.07,29.82,17,10,26,0.00
2013-12-22,50.6,39.7,28.5,36.5,31.3,25.7,94,74,46,30.32,30.06,10,2,15,0.00
2013-12-23,57.1,40.9,27.1,32.0,25.0,18.1,93,59,23,30.44,30.32,14,3,16,0.01
2013-12-24,59.9,42.9,30.4,29.0,23.9,19.8,77,49,26,30.34,30.14,7,2,8,0.00
2013-12-25,58.3,40.4,29.4,27.2,25.0,22.8,81,58,27,30.32,30.19,9,3,13,0.00
2013-12-26,55.0,43.2,33.5,25.5,22.8,20.3,63,45,28,30.29,30.17,8,4,13,0.00
2013-12-27,56.9,42.9,29.6,25.7,21.8,18.3,70,45,23,30.30,30.17,10,3,15,0.00
2013-12-28,59.2,44.7,26.0,28.6,23.3,14.7,83,45,19,30.21,30.00,8,2,12,0.00
2013-12-29,58.4,45.2,32.4,27.5,24.0,18.3,71,46,22,30.15,29.94,6,2,10,0.00
2013-12-30,59.3,40.8,25.2,27.3,21.0,12.6,83,51,16,30.33,30.15,5,2,9,0.00
2013-12-31,62.9,44.5,30.6,23.5,19.4,15.4,65,40,16,30.31,30.15,5,2,8,0.00
2014-1-1,66.1,46.0,31.5,22.8,20.1,17.3,60,40,16,30.20,30.08,6,3,9,0.00
2014-1-2,65.0,49.5,32.5,23.1,21.7,19.4,65,36,18,30.24,30.10,7,3,12,0.00